Terminal Aerodrome Forecast
Issued by NWS

Home | Current Version | Previous Version | Text Only | Print | Product List | Glossary On
Versions: 1 2 3 4 5 6 7 8 9 10 11 12 13
000
FTUS45 KFGZ 232325
TAFPRC
TAF
KPRC 232325Z 2400/2424 22010KT P6SM SCT090
     FM240400 19005KT P6SM SCT150
     FM241700 VRB05KT P6SM BKN090 PROB30 2420/2424 VRB10G20KT TSRA
      BKN090CB=

USA.gov is the U.S. government's official web portal to all federal, state and local government web resources and services.